createdAt,value
2023-05-29T00:00:34.073Z,17.98
2023-05-29T00:03:02.704Z,17.97
2023-05-29T00:05:29.326Z,17.78
2023-05-29T00:07:56.780Z,17.87
2023-05-29T00:10:23.317Z,17.95
2023-05-29T00:12:49.729Z,17.96
2023-05-29T00:15:16.219Z,17.98
2023-05-29T00:17:44.195Z,17.85
2023-05-29T00:20:11.433Z,17.61
2023-05-29T00:22:38.233Z,17.56
2023-05-29T00:25:04.782Z,17.55
2023-05-29T00:27:31.226Z,17.45
2023-05-29T00:29:57.720Z,17.27
2023-05-29T00:32:24.736Z,17.29
2023-05-29T00:34:52.508Z,17.43
2023-05-29T00:37:19.107Z,17.21
2023-05-29T00:39:46.102Z,17.25
2023-05-29T00:42:12.663Z,16.90
2023-05-29T00:44:39.117Z,17.18
2023-05-29T00:47:05.600Z,16.90
2023-05-29T00:49:32.825Z,16.94
2023-05-29T00:51:59.257Z,17.26
2023-05-29T00:54:25.710Z,17.34
2023-05-29T00:56:52.091Z,17.29
2023-05-29T00:59:20.893Z,17.07
2023-05-29T01:01:47.450Z,16.96
2023-05-29T01:04:13.905Z,16.92
2023-05-29T01:06:40.849Z,16.97
2023-05-29T01:09:07.243Z,16.71
2023-05-29T01:11:35.213Z,16.43
2023-05-29T01:14:01.725Z,16.53
2023-05-29T01:16:28.838Z,16.40
2023-05-29T01:18:55.893Z,16.34
2023-05-29T01:21:23.086Z,16.14
2023-05-29T01:23:49.590Z,16.19
2023-05-29T01:26:16.035Z,16.08
2023-05-29T01:28:42.473Z,16.31
2023-05-29T01:31:08.979Z,15.99
2023-05-29T01:33:35.405Z,15.77
2023-05-29T01:36:01.804Z,15.76
2023-05-29T01:38:28.198Z,15.82
2023-05-29T01:40:54.806Z,15.57
2023-05-29T01:43:21.545Z,15.49
2023-05-29T01:45:49.547Z,15.45
2023-05-29T01:48:17.122Z,15.56
2023-05-29T01:50:44.946Z,15.31
2023-05-29T01:53:11.372Z,15.24
2023-05-29T01:55:37.890Z,15.22
2023-05-29T01:58:04.321Z,15.01
2023-05-29T02:00:31.429Z,14.81
2023-05-29T02:02:58.265Z,15.21
2023-05-29T02:05:25.164Z,14.91
2023-05-29T02:07:51.630Z,15.32
2023-05-29T02:10:18.130Z,15.24
2023-05-29T02:12:44.620Z,14.95
2023-05-29T02:15:11.022Z,15.08
2023-05-29T02:17:37.735Z,15.05
2023-05-29T02:20:07.614Z,15.14
2023-05-29T02:22:34.049Z,14.84
2023-05-29T02:25:00.613Z,14.72
2023-05-29T02:27:27.037Z,14.77
2023-05-29T02:29:53.510Z,14.69
2023-05-29T02:32:21.581Z,14.99
2023-05-29T02:34:48.450Z,14.81
2023-05-29T02:37:14.962Z,14.77
2023-05-29T02:39:41.391Z,14.75
2023-05-29T02:42:07.935Z,14.83
2023-05-29T02:44:35.683Z,15.00
2023-05-29T02:47:02.113Z,14.86
2023-05-29T02:49:28.558Z,14.90
2023-05-29T02:51:57.854Z,14.60
2023-05-29T02:54:24.329Z,14.81
2023-05-29T02:56:51.298Z,14.66
2023-05-29T02:59:17.849Z,14.58
2023-05-29T03:01:44.298Z,14.75
2023-05-29T03:04:10.937Z,15.06
2023-05-29T03:06:40.233Z,14.91
2023-05-29T03:09:09.295Z,14.73
2023-05-29T03:11:36.998Z,14.93
2023-05-29T03:14:03.437Z,14.86
2023-05-29T03:16:30.458Z,14.98
2023-05-29T03:18:57.455Z,14.64
2023-05-29T03:21:24.575Z,14.81
2023-05-29T03:23:51.443Z,14.63
2023-05-29T03:26:19.587Z,14.84
2023-05-29T03:28:50.645Z,14.74
2023-05-29T03:31:18.861Z,14.75
2023-05-29T03:33:46.630Z,14.83
2023-05-29T03:36:23.908Z,14.92
2023-05-29T03:38:50.445Z,14.81
2023-05-29T03:41:18.327Z,14.99
2023-05-29T03:43:44.714Z,14.67
2023-05-29T03:46:11.259Z,14.99
2023-05-29T03:48:41.089Z,14.81
2023-05-29T03:51:11.354Z,14.85
2023-05-29T03:53:41.052Z,14.87
2023-05-29T03:56:11.436Z,14.89
2023-05-29T03:58:39.675Z,14.01
2023-05-29T04:01:09.279Z,14.15
2023-05-29T04:03:36.274Z,14.50
2023-05-29T04:06:03.068Z,14.66
2023-05-29T04:08:29.576Z,14.52
2023-05-29T04:10:56.249Z,14.48
2023-05-29T04:13:23.776Z,14.63
2023-05-29T04:15:52.613Z,14.62
2023-05-29T04:18:19.102Z,14.59
2023-05-29T04:20:48.288Z,14.73
2023-05-29T04:23:15.052Z,15.11
2023-05-29T04:25:41.551Z,14.70
2023-05-29T04:28:11.722Z,15.03
2023-05-29T04:30:40.136Z,14.73
2023-05-29T04:33:06.841Z,14.67
2023-05-29T04:35:34.444Z,14.85
2023-05-29T04:38:05.959Z,15.08
2023-05-29T04:40:34.467Z,14.92
2023-05-29T04:43:03.104Z,14.77
2023-05-29T04:45:42.801Z,14.61
2023-05-29T04:48:09.927Z,15.23
2023-05-29T04:50:39.997Z,15.17
2023-05-29T04:53:06.549Z,14.85
2023-05-29T04:55:36.198Z,15.27
2023-05-29T04:58:06.074Z,14.84
2023-05-29T05:00:32.612Z,15.07
2023-05-29T05:02:59.204Z,15.21
2023-05-29T05:05:27.701Z,14.67
2023-05-29T05:07:58.047Z,14.68
2023-05-29T05:10:24.894Z,14.42
2023-05-29T05:12:53.892Z,14.67
2023-05-29T05:15:22.113Z,15.00
2023-05-29T05:17:48.670Z,14.90
2023-05-29T05:20:16.244Z,14.72
2023-05-29T05:22:44.622Z,15.03
2023-05-29T05:25:11.208Z,14.82
2023-05-29T05:27:39.092Z,14.75
2023-05-29T05:30:05.569Z,14.68
2023-05-29T05:32:33.616Z,14.71
2023-05-29T05:35:05.647Z,14.84
2023-05-29T05:37:32.078Z,14.90
2023-05-29T05:40:01.368Z,15.38
2023-05-29T05:42:29.034Z,14.98
2023-05-29T05:45:01.993Z,15.10
2023-05-29T05:47:31.866Z,15.28
2023-05-29T05:49:58.509Z,15.22
2023-05-29T05:52:25.188Z,15.20
2023-05-29T05:54:52.161Z,15.19
2023-05-29T05:57:18.648Z,15.60
2023-05-29T05:59:46.446Z,15.57
2023-05-29T06:02:13.710Z,15.47
2023-05-29T06:04:41.285Z,15.68
2023-05-29T06:07:08.242Z,15.64
2023-05-29T06:09:39.870Z,15.69
2023-05-29T06:12:11.253Z,15.46
2023-05-29T06:14:44.444Z,16.09
2023-05-29T06:17:10.886Z,15.68
2023-05-29T06:19:38.796Z,15.96
2023-05-29T06:22:05.483Z,16.06
2023-05-29T06:24:33.912Z,15.63
2023-05-29T06:27:00.832Z,15.63
2023-05-29T06:29:31.056Z,15.71
2023-05-29T06:31:57.632Z,15.75
2023-05-29T06:34:24.120Z,15.92
2023-05-29T06:36:52.908Z,16.42
2023-05-29T06:39:21.145Z,15.93
2023-05-29T06:41:47.589Z,16.34
2023-05-29T06:44:18.208Z,16.30
2023-05-29T06:46:47.072Z,16.89
2023-05-29T06:49:13.946Z,16.47
2023-05-29T06:51:45.574Z,16.47
2023-05-29T06:54:23.478Z,17.01
2023-05-29T06:57:01.963Z,17.20
2023-05-29T06:59:33.432Z,16.92
2023-05-29T07:01:59.958Z,17.18
2023-05-29T07:04:28.066Z,17.23
2023-05-29T07:06:54.565Z,16.66
2023-05-29T07:09:21.007Z,16.94
2023-05-29T07:11:48.536Z,16.72
2023-05-29T07:14:15.426Z,17.07
2023-05-29T07:16:41.902Z,17.27
2023-05-29T07:19:08.506Z,16.91
2023-05-29T07:21:46.680Z,17.01
2023-05-29T07:24:14.105Z,16.88
2023-05-29T07:26:40.935Z,17.02
2023-05-29T07:29:07.948Z,17.67
2023-05-29T07:31:34.498Z,17.25
2023-05-29T07:34:01.108Z,17.13
2023-05-29T07:36:28.327Z,17.05
2023-05-29T07:38:59.146Z,17.25
2023-05-29T07:41:27.632Z,17.42
2023-05-29T07:43:56.772Z,17.32
2023-05-29T07:46:23.508Z,17.30
2023-05-29T07:48:54.368Z,17.58
2023-05-29T07:51:21.403Z,17.56
2023-05-29T07:53:50.413Z,17.02
2023-05-29T07:56:17.830Z,17.15
2023-05-29T07:58:48.266Z,17.26
2023-05-29T08:01:15.745Z,17.44
2023-05-29T08:03:42.358Z,17.35
2023-05-29T08:06:08.981Z,17.56
2023-05-29T08:08:35.556Z,17.79
2023-05-29T08:11:02.251Z,17.48
2023-05-29T08:13:28.834Z,17.53
2023-05-29T08:15:56.411Z,17.36
2023-05-29T08:18:22.837Z,17.66
2023-05-29T08:20:49.442Z,17.79
2023-05-29T08:23:15.981Z,18.12
2023-05-29T08:25:42.352Z,18.05
2023-05-29T08:28:08.802Z,18.39
2023-05-29T08:30:35.259Z,18.20
2023-05-29T08:33:01.797Z,18.12
2023-05-29T08:35:28.460Z,18.22
2023-05-29T08:37:54.964Z,17.91
2023-05-29T08:40:21.539Z,18.00
2023-05-29T08:42:48.175Z,18.28
2023-05-29T08:45:14.810Z,18.03
2023-05-29T08:47:42.883Z,18.03
2023-05-29T08:50:10.758Z,18.27
2023-05-29T08:52:37.261Z,18.09
2023-05-29T08:55:03.781Z,18.27
2023-05-29T08:57:30.210Z,18.10
2023-05-29T08:59:56.702Z,18.28
2023-05-29T09:02:23.082Z,18.24
2023-05-29T09:04:57.410Z,18.19
2023-05-29T09:07:23.827Z,18.23
2023-05-29T09:09:50.396Z,18.16
2023-05-29T09:12:18.150Z,18.21
2023-05-29T09:14:45.641Z,18.31
2023-05-29T09:17:12.332Z,18.46
2023-05-29T09:19:39.715Z,18.87
2023-05-29T09:22:06.161Z,18.44
2023-05-29T09:24:32.561Z,18.75
2023-05-29T09:26:59.014Z,18.58
2023-05-29T09:29:25.434Z,18.72
2023-05-29T09:31:51.941Z,18.81
2023-05-29T09:34:18.353Z,18.90
2023-05-29T09:36:44.741Z,18.89
2023-05-29T09:39:17.906Z,18.95
2023-05-29T09:41:44.816Z,19.14
2023-05-29T09:44:11.889Z,18.91
2023-05-29T09:46:38.317Z,19.14
2023-05-29T09:49:04.780Z,18.93
2023-05-29T09:51:31.514Z,18.34
2023-05-29T09:54:02.024Z,18.84
2023-05-29T09:56:28.588Z,18.43
2023-05-29T09:58:54.994Z,19.01
2023-05-29T10:01:22.838Z,19.39
2023-05-29T10:03:49.951Z,19.37
2023-05-29T10:06:16.421Z,19.56
2023-05-29T10:08:43.241Z,19.45
2023-05-29T10:11:15.058Z,19.63
2023-05-29T10:13:41.822Z,19.75
2023-05-29T10:16:08.426Z,20.00
2023-05-29T10:18:35.042Z,20.11
2023-05-29T10:21:01.591Z,20.57
2023-05-29T10:23:28.175Z,20.30
2023-05-29T10:25:54.894Z,19.78
2023-05-29T10:28:21.884Z,20.04
2023-05-29T10:30:48.348Z,20.03
2023-05-29T10:33:14.796Z,20.91
2023-05-29T10:35:41.308Z,20.72
2023-05-29T10:38:07.742Z,20.24
2023-05-29T10:40:34.123Z,20.43
2023-05-29T10:43:00.551Z,20.43
2023-05-29T10:45:26.969Z,20.08
2023-05-29T10:47:53.409Z,20.36
2023-05-29T10:50:19.816Z,20.72
2023-05-29T10:52:46.287Z,20.48
2023-05-29T10:55:12.748Z,20.78
2023-05-29T10:57:39.189Z,20.46
2023-05-29T11:00:14.094Z,20.29
2023-05-29T11:02:41.191Z,20.82
2023-05-29T11:05:08.436Z,20.84
2023-05-29T11:07:35.201Z,20.67
2023-05-29T11:10:01.615Z,20.52
2023-05-29T11:12:34.494Z,20.76
2023-05-29T11:15:01.134Z,20.82
2023-05-29T11:17:27.716Z,21.19
2023-05-29T11:19:54.141Z,21.52
2023-05-29T11:22:20.596Z,21.52
2023-05-29T11:24:47.072Z,21.06
2023-05-29T11:27:13.585Z,21.35
2023-05-29T11:29:40.196Z,21.02
2023-05-29T11:32:06.894Z,21.05
2023-05-29T11:34:33.769Z,20.62
2023-05-29T11:37:00.245Z,20.90
2023-05-29T11:39:26.759Z,21.08
2023-05-29T11:41:53.990Z,21.11
2023-05-29T11:44:21.138Z,21.08
2023-05-29T11:46:47.831Z,21.24
2023-05-29T11:49:14.273Z,20.86
2023-05-29T11:51:40.644Z,20.97
2023-05-29T11:54:07.518Z,20.92
2023-05-29T11:56:33.965Z,21.01
2023-05-29T11:59:01.091Z,21.03
2023-05-29T12:01:28.513Z,20.94
2023-05-29T12:03:55.009Z,21.29
2023-05-29T12:06:21.426Z,20.91
2023-05-29T12:08:47.966Z,21.31
2023-05-29T12:11:14.371Z,21.68
2023-05-29T12:13:41.795Z,21.92
2023-05-29T12:16:08.298Z,21.62
2023-05-29T12:18:34.827Z,21.90
2023-05-29T12:21:01.344Z,21.78
2023-05-29T12:23:27.909Z,21.86
2023-05-29T12:25:54.540Z,21.91
2023-05-29T12:28:21.942Z,21.47
2023-05-29T12:30:51.606Z,21.66
2023-05-29T12:33:18.076Z,21.50
2023-05-29T12:35:44.500Z,22.15
2023-05-29T12:38:10.918Z,21.70
2023-05-29T12:40:40.159Z,21.86
2023-05-29T12:43:06.667Z,21.61
2023-05-29T12:45:33.127Z,21.84
2023-05-29T12:47:59.541Z,21.86
2023-05-29T12:50:26.044Z,21.88
2023-05-29T12:52:52.510Z,21.92
2023-05-29T12:55:19.240Z,21.96
2023-05-29T12:57:47.443Z,21.83
2023-05-29T13:00:13.881Z,21.99
2023-05-29T13:02:40.457Z,21.80
2023-05-29T13:05:06.884Z,21.73
2023-05-29T13:07:33.317Z,21.72
2023-05-29T13:09:59.758Z,21.98
2023-05-29T13:12:26.143Z,21.91
2023-05-29T13:14:52.553Z,21.65
2023-05-29T13:17:18.955Z,21.23
2023-05-29T13:19:45.632Z,21.71
2023-05-29T13:22:12.045Z,21.99
2023-05-29T13:24:38.563Z,22.20
2023-05-29T13:27:05.130Z,22.13
2023-05-29T13:29:31.769Z,22.16
2023-05-29T13:31:58.309Z,22.06
2023-05-29T13:34:29.482Z,21.88
2023-05-29T13:36:56.168Z,21.83
2023-05-29T13:39:22.622Z,21.35
2023-05-29T13:41:49.013Z,21.68
2023-05-29T13:44:15.413Z,21.85
2023-05-29T13:46:41.838Z,21.93
2023-05-29T13:49:11.367Z,22.13
2023-05-29T13:51:37.842Z,22.08
2023-05-29T13:54:04.762Z,22.38
2023-05-29T13:56:31.183Z,21.99
2023-05-29T13:58:57.621Z,22.23
2023-05-29T14:01:25.723Z,21.99
2023-05-29T14:03:52.371Z,22.30
2023-05-29T14:06:18.933Z,22.25
2023-05-29T14:08:45.688Z,22.19
2023-05-29T14:11:12.089Z,22.55
2023-05-29T14:13:38.565Z,22.19
2023-05-29T14:16:04.990Z,22.46
2023-05-29T14:18:31.641Z,21.95
2023-05-29T14:20:58.213Z,22.35
2023-05-29T14:23:24.669Z,22.09
2023-05-29T14:25:52.301Z,22.66
2023-05-29T14:28:18.695Z,22.54
2023-05-29T14:30:45.077Z,22.30
2023-05-29T14:33:11.496Z,21.64
2023-05-29T14:35:37.926Z,22.04
2023-05-29T14:38:04.356Z,21.90
2023-05-29T14:40:32.337Z,22.32
2023-05-29T14:42:59.128Z,22.06
2023-05-29T14:45:25.706Z,22.15
2023-05-29T14:47:52.335Z,22.21
2023-05-29T14:50:18.814Z,22.15
2023-05-29T14:52:45.225Z,22.30
2023-05-29T14:55:11.650Z,22.62
2023-05-29T14:57:38.078Z,21.84
2023-05-29T15:00:07.282Z,21.81
2023-05-29T15:02:34.333Z,21.94
2023-05-29T15:05:01.300Z,21.93
2023-05-29T15:07:27.685Z,22.05
2023-05-29T15:09:54.223Z,22.28
2023-05-29T15:12:20.841Z,21.99
2023-05-29T15:14:47.238Z,22.51
2023-05-29T15:17:13.810Z,22.49
2023-05-29T15:19:40.476Z,22.98
2023-05-29T15:22:06.884Z,22.39
2023-05-29T15:24:33.273Z,22.65
2023-05-29T15:27:00.445Z,23.08
2023-05-29T15:29:27.035Z,22.68
2023-05-29T15:31:53.445Z,22.83
2023-05-29T15:34:19.960Z,23.02
2023-05-29T15:36:46.481Z,23.35
2023-05-29T15:39:12.934Z,22.29
2023-05-29T15:41:39.351Z,22.69
2023-05-29T15:44:05.836Z,22.73
2023-05-29T15:46:32.302Z,22.60
2023-05-29T15:48:58.766Z,23.09
2023-05-29T15:51:25.244Z,22.69
2023-05-29T15:53:51.641Z,22.56
2023-05-29T15:56:18.061Z,22.71
2023-05-29T15:58:44.520Z,23.12
2023-05-29T16:01:11.717Z,22.69
2023-05-29T16:03:38.212Z,22.30
2023-05-29T16:06:04.647Z,22.65
2023-05-29T16:08:31.353Z,22.41
2023-05-29T16:10:58.931Z,22.97
2023-05-29T16:13:25.645Z,23.29
2023-05-29T16:15:52.334Z,23.22
2023-05-29T16:18:18.768Z,23.24
2023-05-29T16:20:45.206Z,23.14
2023-05-29T16:23:12.513Z,23.15
2023-05-29T16:25:39.320Z,23.41
2023-05-29T16:28:06.181Z,22.95
2023-05-29T16:30:33.407Z,23.49
2023-05-29T16:32:59.900Z,23.63
2023-05-29T16:35:26.428Z,23.41
2023-05-29T16:37:53.414Z,23.27
2023-05-29T16:40:21.502Z,23.50
2023-05-29T16:42:48.003Z,23.03
2023-05-29T16:45:14.535Z,23.27
2023-05-29T16:47:40.934Z,23.40
2023-05-29T16:50:08.895Z,23.51
2023-05-29T16:52:35.391Z,23.28
2023-05-29T16:55:03.019Z,23.28
2023-05-29T16:57:29.612Z,23.23
2023-05-29T16:59:56.364Z,22.97
2023-05-29T17:02:22.782Z,22.83
2023-05-29T17:04:49.835Z,22.82
2023-05-29T17:07:16.280Z,22.96
2023-05-29T17:09:42.984Z,23.25
2023-05-29T17:12:09.668Z,23.08
2023-05-29T17:14:36.141Z,23.10
2023-05-29T17:17:03.400Z,23.33
2023-05-29T17:19:30.127Z,23.12
2023-05-29T17:21:56.750Z,23.41
2023-05-29T17:24:23.145Z,22.90
2023-05-29T17:26:49.688Z,23.21
2023-05-29T17:29:17.073Z,23.65
2023-05-29T17:31:43.546Z,23.50
2023-05-29T17:34:10.951Z,23.31
2023-05-29T17:36:37.388Z,23.25
2023-05-29T17:39:03.795Z,23.31
2023-05-29T17:41:30.270Z,23.23
2023-05-29T17:43:56.961Z,23.70
2023-05-29T17:46:23.479Z,23.49
2023-05-29T17:48:50.323Z,23.69
2023-05-29T17:51:16.838Z,23.11
2023-05-29T17:53:43.718Z,23.06
2023-05-29T17:56:10.288Z,23.23
2023-05-29T17:58:36.838Z,23.37
2023-05-29T18:01:03.469Z,23.20
2023-05-29T18:03:30.206Z,22.91
2023-05-29T18:05:57.458Z,22.77
2023-05-29T18:08:24.061Z,22.82
2023-05-29T18:10:50.741Z,22.39
2023-05-29T18:13:17.281Z,22.67
2023-05-29T18:15:43.913Z,22.40
2023-05-29T18:18:10.476Z,22.66
2023-05-29T18:20:39.777Z,22.87
2023-05-29T18:23:08.156Z,22.96
2023-05-29T18:25:36.370Z,22.71
2023-05-29T18:28:03.338Z,22.51
2023-05-29T18:30:29.764Z,22.27
2023-05-29T18:32:59.035Z,23.00
2023-05-29T18:35:25.697Z,22.10
2023-05-29T18:37:53.186Z,22.25
2023-05-29T18:40:20.041Z,22.29
2023-05-29T18:42:46.467Z,21.79
2023-05-29T18:45:12.869Z,21.94
2023-05-29T18:47:39.423Z,22.44
2023-05-29T18:50:06.308Z,22.01
2023-05-29T18:52:34.911Z,21.81
2023-05-29T18:55:01.289Z,21.74
2023-05-29T18:57:27.764Z,21.57
2023-05-29T18:59:55.821Z,21.21
2023-05-29T19:02:22.992Z,21.33
2023-05-29T19:04:49.640Z,21.29
2023-05-29T19:07:16.016Z,20.90
2023-05-29T19:09:43.761Z,21.15
2023-05-29T19:12:10.296Z,20.73
2023-05-29T19:14:37.448Z,20.70
2023-05-29T19:17:08.162Z,21.02
2023-05-29T19:19:34.687Z,21.12
2023-05-29T19:22:01.022Z,20.85
2023-05-29T19:24:27.533Z,20.86
2023-05-29T19:26:54.002Z,20.66
2023-05-29T19:29:20.862Z,20.75
2023-05-29T19:31:48.232Z,20.62
2023-05-29T19:34:14.917Z,20.60
2023-05-29T19:36:41.655Z,20.59
2023-05-29T19:39:08.331Z,20.41
2023-05-29T19:41:36.978Z,20.56
2023-05-29T19:44:05.168Z,20.45
2023-05-29T19:46:31.679Z,20.41
2023-05-29T19:48:58.573Z,20.34
2023-05-29T19:51:24.991Z,20.15
2023-05-29T19:53:51.401Z,20.16
2023-05-29T19:56:17.902Z,20.11
2023-05-29T19:58:44.314Z,19.78
2023-05-29T20:01:10.928Z,19.70
2023-05-29T20:03:38.181Z,19.82
2023-05-29T20:06:04.649Z,19.61
2023-05-29T20:08:31.216Z,19.51
2023-05-29T20:11:00.185Z,19.49
2023-05-29T20:13:27.932Z,19.56
2023-05-29T20:15:54.683Z,19.39
2023-05-29T20:18:21.336Z,19.45
2023-05-29T20:20:48.183Z,19.45
2023-05-29T20:23:14.797Z,19.33
2023-05-29T20:25:41.189Z,19.47
2023-05-29T20:28:08.174Z,19.36
2023-05-29T20:30:34.686Z,19.38
2023-05-29T20:33:01.225Z,19.31
2023-05-29T20:35:27.828Z,19.36
2023-05-29T20:37:54.778Z,19.41
2023-05-29T20:40:21.449Z,19.22
2023-05-29T20:42:48.007Z,19.33
2023-05-29T20:45:14.460Z,19.39
2023-05-29T20:47:40.948Z,19.12
2023-05-29T20:50:07.388Z,19.02
2023-05-29T20:52:34.238Z,19.05
2023-05-29T20:55:00.567Z,18.98
2023-05-29T20:57:26.972Z,19.17
2023-05-29T20:59:53.398Z,18.99
2023-05-29T21:02:19.918Z,19.06
2023-05-29T21:04:46.390Z,19.01
2023-05-29T21:07:12.836Z,18.77
2023-05-29T21:09:39.667Z,18.50
2023-05-29T21:12:06.072Z,18.52
2023-05-29T21:14:32.461Z,18.57
2023-05-29T21:16:58.901Z,18.40
2023-05-29T21:19:25.314Z,18.08
2023-05-29T21:21:52.285Z,18.00
2023-05-29T21:24:18.825Z,17.83
2023-05-29T21:26:45.528Z,18.14
2023-05-29T21:29:11.969Z,18.02
2023-05-29T21:31:40.447Z,18.08
2023-05-29T21:34:07.472Z,18.01
2023-05-29T21:36:34.005Z,17.94
2023-05-29T21:39:00.440Z,18.03
2023-05-29T21:41:26.897Z,17.73
2023-05-29T21:43:54.126Z,17.98
2023-05-29T21:46:20.836Z,17.81
2023-05-29T21:48:47.276Z,18.19
2023-05-29T21:51:13.921Z,17.52
2023-05-29T21:53:40.465Z,17.50
2023-05-29T21:56:07.091Z,17.30
2023-05-29T21:58:33.537Z,17.30
2023-05-29T22:01:00.208Z,17.32
2023-05-29T22:03:26.930Z,17.32
2023-05-29T22:05:53.830Z,17.29
2023-05-29T22:08:21.451Z,17.10
2023-05-29T22:10:48.077Z,17.06
2023-05-29T22:13:15.210Z,17.14
2023-05-29T22:15:41.639Z,17.02
2023-05-29T22:18:08.415Z,16.97
2023-05-29T22:20:36.218Z,16.85
2023-05-29T22:23:16.985Z,16.98
2023-05-29T22:25:45.527Z,17.12
2023-05-29T22:28:12.115Z,16.96
2023-05-29T22:30:38.487Z,17.20
2023-05-29T22:33:04.953Z,16.76
2023-05-29T22:35:31.888Z,16.76
2023-05-29T22:37:58.540Z,16.76
2023-05-29T22:40:25.514Z,16.58
2023-05-29T22:42:52.592Z,16.61
2023-05-29T22:45:21.999Z,17.14
2023-05-29T22:47:49.829Z,16.29
2023-05-29T22:50:16.417Z,16.31
2023-05-29T22:52:43.594Z,16.53
2023-05-29T22:55:10.504Z,16.77
2023-05-29T22:57:36.922Z,16.61
2023-05-29T23:00:09.706Z,16.28
2023-05-29T23:02:39.635Z,16.19
2023-05-29T23:05:07.134Z,16.17
2023-05-29T23:07:33.600Z,16.27
2023-05-29T23:10:00.276Z,16.28
2023-05-29T23:12:26.735Z,15.98
2023-05-29T23:14:53.250Z,15.68
2023-05-29T23:17:19.685Z,15.89
2023-05-29T23:19:46.085Z,16.13
2023-05-29T23:22:12.582Z,15.78
2023-05-29T23:24:39.231Z,15.93
2023-05-29T23:27:05.873Z,16.04
2023-05-29T23:29:32.430Z,15.66
2023-05-29T23:31:59.027Z,15.66
2023-05-29T23:34:26.888Z,15.97
2023-05-29T23:36:53.317Z,15.79
2023-05-29T23:39:19.991Z,15.76
2023-05-29T23:41:46.374Z,15.23
2023-05-29T23:44:12.748Z,15.61
2023-05-29T23:46:39.221Z,15.40
2023-05-29T23:49:08.384Z,15.58
2023-05-29T23:51:34.835Z,15.58
2023-05-29T23:54:01.343Z,15.92
2023-05-29T23:56:28.149Z,15.60
2023-05-29T23:58:57.143Z,15.58
